Time;durP1;ratioP1;P1;durP2;ratioP2;P2;SDS_P1;SDS_P2;PMS_P1;PMS_P2;Temp;Humidity;BMP_temperature;BMP_pressure;BME280_temperature;BME280_humidity;BME280_pressure;Samples;Min_cycle;Max_cycle;Signal;HPM_P1;HPM_P2
2022/12/09 07:35:05;;;;;;;0.93;0.93;;;1.50;99.90;1.10;100340.00;;;;5091037;22;20258;-66
2022/12/09 07:37:44;;;;;;;0.70;0.70;;;1.60;99.90;1.70;100347.00;;;;5094491;28;20234;-66
2022/12/09 07:40:53;;;;;;;2.20;2.10;;;1.90;99.90;1.80;100348.00;;;;5095891;28;20620;-66
2022/12/09 07:43:58;;;;;;;0.50;0.50;;;1.90;99.90;1.60;100358.00;;;;5078650;28;20212;-66
2022/12/09 07:47:16;;;;;;;0.57;0.57;;;2.00;99.90;1.30;100360.00;;;;5077498;28;20203;-66
2022/12/09 07:50:30;;;;;;;1.10;1.10;;;1.70;99.90;1.00;100356.00;;;;5095721;28;20191;-67
2022/12/09 07:53:33;;;;;;;0.60;0.60;;;1.60;99.90;1.30;100266.00;;;;5078542;28;20220;-66
2022/12/09 07:56:46;;;;;;;0.50;0.50;;;1.60;99.90;1.50;100356.00;;;;5076252;28;20189;-67
2022/12/09 08:00:04;;;;;;;1.80;1.40;;;1.60;99.90;2.00;100271.00;;;;5070748;28;20189;-66
2022/12/09 08:03:06;;;;;;;3.50;2.67;;;2.20;99.90;1.50;100352.00;;;;5091733;28;20192;-66
2022/12/09 08:06:10;;;;;;;11.33;3.83;;;2.10;99.90;1.30;100342.00;;;;5077630;28;20196;-66
2022/12/09 08:09:07;;;;;;;1.10;0.97;;;1.90;99.90;1.50;100348.00;;;;5077488;28;20648;-65
2022/12/09 08:12:01;;;;;;;4.97;2.67;;;1.80;99.90;1.60;100297.00;;;;5085213;28;20200;-67
2022/12/09 08:14:27;;;;;;;1.07;1.07;;;2.00;99.90;1.30;100364.00;;;;5075754;28;20192;-67
2022/12/09 08:17:30;;;;;;;2.20;2.00;;;1.80;99.90;1.10;100348.00;;;;5072974;28;20667;-67
2022/12/09 08:20:33;;;;;;;0.70;0.70;;;1.60;99.90;0.80;100356.00;;;;5071024;28;20192;-66
2022/12/09 08:23:37;;;;;;;0.50;0.50;;;1.60;99.90;1.00;100366.00;;;;5060842;28;20196;-67
2022/12/09 08:26:39;;;;;;;4.10;3.20;;;1.50;99.90;1.20;100367.00;;;;5065470;28;20193;-67
2022/12/09 08:29:23;;;;;;;3.43;3.13;;;1.60;99.90;1.50;100298.00;;;;5092538;28;20237;-67
2022/12/09 08:31:49;;;;;;;0.60;0.60;;;1.70;99.90;1.50;100358.00;;;;5076072;28;20212;-67
2022/12/09 08:34:35;;;;;;;1.33;1.33;;;1.80;99.90;1.10;100379.00;;;;5094714;28;20206;-67
2022/12/09 08:37:28;;;;;;;2.23;2.13;;;1.70;99.90;0.90;100362.00;;;;5076816;28;20200;-67
2022/12/09 08:40:35;;;;;;;3.60;3.40;;;1.50;99.90;0.70;100386.00;;;;5063548;28;20212;-67
2022/12/09 08:43:45;;;;;;;0.60;0.60;;;1.40;99.90;0.50;100343.00;;;;5093315;28;20226;-67
2022/12/09 08:46:34;;;;;;;0.60;0.60;;;1.30;99.90;0.80;100382.00;;;;5059573;28;20647;-67
2022/12/09 08:49:40;;;;;;;2.20;1.87;;;1.30;99.90;1.00;100307.00;;;;5076592;28;20185;-67
2022/12/09 08:52:30;;;;;;;0.80;0.80;;;1.50;99.90;1.30;100381.00;;;;5059660;28;20234;-67
2022/12/09 08:55:38;;;;;;;2.13;2.07;;;1.70;99.90;1.40;100376.00;;;;5058349;28;20275;-67
2022/12/09 08:58:39;;;;;;;2.00;2.00;;;1.70;99.90;1.40;100376.00;;;;5066978;28;20190;-67
2022/12/09 09:01:33;;;;;;;0.50;0.50;;;1.80;99.90;1.40;100375.00;;;;5075582;28;20206;-67
2022/12/09 09:04:37;;;;;;;1.10;1.10;;;1.70;99.90;1.40;100378.00;;;;5073382;28;20197;-67
2022/12/09 09:07:38;;;;;;;0.70;0.70;;;1.90;99.90;1.90;100374.00;;;;5077515;28;20541;-67
2022/12/09 09:10:41;;;;;;;1.83;1.83;;;2.00;99.90;1.10;100288.00;;;;5078077;28;20569;-67
2022/12/09 09:13:30;;;;;;;4.40;4.00;;;1.90;99.90;1.20;100386.00;;;;5084138;28;20759;-67
2022/12/09 09:16:39;;;;;;;2.30;1.60;;;1.80;99.90;1.40;100389.00;;;;5075202;28;20184;-67
2022/12/09 09:19:46;;;;;;;5.40;3.83;;;1.70;99.90;0.90;100381.00;;;;5073907;28;20214;-67
2022/12/09 09:22:39;;;;;;;1.70;1.67;;;1.70;99.90;1.30;100375.00;;;;5092965;28;20208;-72
2022/12/09 09:25:11;;;;;;;8.63;8.17;;;1.80;99.90;0.90;100395.00;;;;5044636;28;20552;-66
2022/12/09 09:28:02;;;;;;;0.50;0.50;;;1.60;99.90;1.50;100393.00;;;;5079022;28;20186;-67
2022/12/09 09:31:13;;;;;;;2.40;1.47;;;1.70;99.90;1.50;100394.00;;;;5053629;28;20212;-67
2022/12/09 09:33:56;;;;;;;4.70;4.40;;;1.80;99.90;2.10;100376.00;;;;5071903;28;20718;-66
2022/12/09 09:36:42;;;;;;;0.73;0.73;;;2.10;99.90;1.80;100377.00;;;;5054697;28;20212;-66
2022/12/09 09:39:30;;;;;;;2.97;2.73;;;2.30;99.90;1.80;100383.00;;;;5061036;28;20277;-67
2022/12/09 09:42:03;;;;;;;2.60;2.47;;;2.20;99.90;1.20;100390.00;;;;5071181;28;20196;-67
2022/12/09 09:44:38;;;;;;;3.50;1.77;;;2.00;99.90;1.00;100401.00;;;;5075719;28;20631;-68
2022/12/09 09:47:54;;;;;;;0.50;0.50;;;1.80;99.90;1.80;100395.00;;;;5075519;28;20196;-67
2022/12/09 09:50:49;;;;;;;1.03;1.03;;;1.90;99.90;1.80;100409.00;;;;5068273;28;20227;-68
2022/12/09 09:53:51;;;;;;;2.53;1.83;;;2.20;99.90;1.70;100338.00;;;;5066326;28;20226;-67
2022/12/09 09:56:29;;;;;;;0.83;0.83;;;2.00;99.90;2.00;100399.00;;;;5059015;28;20200;-67
2022/12/09 09:59:40;;;;;;;4.20;3.23;;;2.20;99.90;2.40;100389.00;;;;5082372;28;20559;-67
2022/12/09 10:02:20;;;;;;;3.73;3.17;;;2.50;99.90;1.70;100389.00;;;;5083310;28;20224;-67
2022/12/09 10:05:18;;;;;;;2.13;1.97;;;2.20;99.90;1.30;100391.00;;;;5079302;28;20638;-67
2022/12/09 10:08:13;;;;;;;1.60;1.50;;;2.20;99.90;1.80;100298.00;;;;5097636;28;20283;-67
2022/12/09 10:11:19;;;;;;;0.77;0.77;;;2.10;99.90;1.30;100365.00;;;;5065435;28;20613;-68
2022/12/09 10:14:40;;;;;;;1.73;1.73;;;2.00;99.90;2.10;100381.00;;;;5065669;28;20551;-68
2022/12/09 10:33:43;;;;;;;4.53;2.07;;;1.40;99.90;0.80;100391.00;;;;5121337;27;20547;-67
2022/12/09 10:36:51;;;;;;;2.33;2.07;;;1.50;99.90;1.00;100301.00;;;;5115267;28;20192;-67
2022/12/09 10:39:38;;;;;;;1.50;1.23;;;1.70;99.90;1.30;100312.00;;;;5091659;28;21063;-67
2022/12/09 10:46:28;;;;;;;1.90;1.10;;;1.60;99.90;0.80;100381.00;;;;5093269;28;20215;-66
2022/12/09 10:49:46;;;;;;;0.50;0.50;;;1.70;99.90;0.80;100295.00;;;;4950988;28;20590;-66
2022/12/09 10:52:41;;;;;;;4.53;3.60;;;1.70;99.90;0.50;100384.00;;;;4925534;29;20197;-67
2022/12/09 10:55:44;;;;;;;0.40;0.40;;;1.50;99.90;0.60;100374.00;;;;4929740;28;20249;-66
2022/12/09 10:58:40;;;;;;;1.70;1.60;;;1.40;99.90;0.80;100387.00;;;;4945898;28;20677;-66
2022/12/09 11:01:51;;;;;;;0.40;0.40;;;1.30;99.90;0.70;100384.00;;;;4950913;28;20247;-66
2022/12/09 11:04:42;;;;;;;1.03;0.93;;;1.50;99.90;0.60;100384.00;;;;4924360;28;20237;-69
2022/12/09 11:07:32;;;;;;;0.60;0.60;;;1.40;99.90;1.00;100384.00;;;;5007126;28;20209;-71
2022/12/09 11:13:18;;;;;;;2.63;2.50;;;1.70;99.90;0.40;100383.00;;;;5008982;28;20233;-67
2022/12/09 11:16:10;;;;;;;1.37;1.27;;;1.30;99.90;0.20;100280.00;;;;5010644;28;20534;-67
2022/12/09 11:19:49;;;;;;;0.53;0.53;;;1.20;99.90;0.40;100369.00;;;;5009976;28;20487;-67
2022/12/09 11:22:58;;;;;;;2.23;1.53;;;1.30;99.90;1.00;100375.00;;;;5023707;28;20195;-68
2022/12/09 11:25:57;;;;;;;1.47;1.37;;;1.50;99.90;0.80;100375.00;;;;5040710;28;20196;-68
2022/12/09 11:28:59;;;;;;;0.47;0.47;;;1.60;99.90;1.80;100373.00;;;;5103569;28;20656;-68
2022/12/09 11:31:44;;;;;;;1.07;1.07;;;2.00;99.90;2.00;100372.00;;;;5109487;28;20228;-68
2022/12/09 11:34:24;;;;;;;0.83;0.83;;;2.20;99.90;1.90;100352.00;;;;5098058;28;20536;-68
2022/12/09 11:37:19;;;;;;;2.90;2.60;;;2.40;99.90;2.30;100353.00;;;;5079110;28;20181;-67
2022/12/09 11:40:28;;;;;;;1.00;1.00;;;2.40;99.90;2.10;100346.00;;;;5099000;28;20189;-65
2022/12/09 11:43:39;;;;;;;4.90;3.43;;;2.40;99.90;1.20;100336.00;;;;5094757;28;20280;-66
2022/12/09 11:46:46;;;;;;;0.50;0.50;;;2.20;99.90;1.00;100348.00;;;;5083681;28;20181;-67
2022/12/09 11:49:19;;;;;;;2.00;1.90;;;1.80;99.90;1.10;100335.00;;;;5070283;28;20205;-65
2022/12/09 11:52:30;;;;;;;0.53;0.53;;;1.80;99.90;1.30;100345.00;;;;5082501;28;20227;-65
2022/12/09 11:56:05;;;;;;;3.07;2.60;;;1.90;99.90;1.30;100297.00;;;;5089095;28;20261;-65
2022/12/09 11:58:40;;;;;;;2.40;2.30;;;2.00;99.90;1.50;100352.00;;;;4980843;28;20296;-65
2022/12/09 12:01:42;;;;;;;0.70;0.70;;;1.90;99.90;1.60;100341.00;;;;4998659;28;20200;-66
2022/12/09 12:04:15;;;;;;;3.03;2.87;;;2.10;99.90;2.10;100348.00;;;;5074033;28;20190;-65
2022/12/09 12:06:46;;;;;;;0.50;0.50;;;2.20;99.90;1.30;100353.00;;;;5075685;28;20176;-65
2022/12/09 12:10:01;;;;;;;7.23;3.87;;;2.10;99.90;1.60;100345.00;;;;5073897;28;20189;-65
2022/12/09 12:12:42;;;;;;;1.63;1.63;;;2.20;99.90;1.90;100351.00;;;;5056362;28;20225;-65
2022/12/09 12:15:59;;;;;;;1.13;1.13;;;2.30;99.90;2.10;100341.00;;;;5082188;28;20661;-65
2022/12/09 12:18:56;;;;;;;2.10;1.63;;;2.50;99.90;2.10;100336.00;;;;5052796;28;20189;-65
2022/12/09 12:21:58;;;;;;;0.73;0.73;;;2.50;99.90;1.70;100340.00;;;;5076838;28;20208;-65
2022/12/09 12:24:40;;;;;;;0.80;0.80;;;2.30;99.90;2.00;100264.00;;;;5071265;28;20272;-66
2022/12/09 12:27:22;;;;;;;4.17;3.97;;;2.40;99.90;2.30;100337.00;;;;5073077;28;20211;-65
2022/12/09 12:30:53;;;;;;;6.63;4.13;;;2.50;99.90;1.30;100324.00;;;;5087834;28;20181;-65
2022/12/09 12:33:39;;;;;;;0.63;0.63;;;2.30;99.90;1.70;100246.00;;;;5032632;28;20217;-65
2022/12/09 12:37:06;;;;;;;1.33;1.33;;;2.30;99.90;2.00;100322.00;;;;5089995;28;20238;-65
2022/12/09 12:39:46;;;;;;;2.43;2.23;;;2.40;99.90;1.80;100322.00;;;;5051430;28;20189;-66
2022/12/09 12:42:32;;;;;;;0.93;0.93;;;2.30;99.90;2.50;100330.00;;;;5050139;28;20198;-66
2022/12/09 12:49:44;;;;;;;1.23;1.23;;;2.80;99.90;1.60;100319.00;;;;5064606;28;20195;-66
2022/12/09 12:52:59;;;;;;;1.83;1.80;;;2.80;99.90;1.90;100306.00;;;;5049401;28;20197;-66
2022/12/09 12:56:06;;;;;;;0.70;0.70;;;2.40;99.90;2.30;100318.00;;;;5064303;28;20197;-66
2022/12/09 12:58:46;;;;;;;0.60;0.60;;;2.80;99.90;2.30;100323.00;;;;5061049;28;20193;-66
2022/12/09 13:01:54;;;;;;;0.67;0.67;;;2.60;99.90;1.70;100307.00;;;;5056100;28;20177;-66
2022/12/09 13:04:39;;;;;;;0.50;0.50;;;2.50;99.90;2.80;100314.00;;;;5079350;28;20177;-67
2022/12/09 13:07:26;;;;;;;0.60;0.60;;;2.80;99.90;2.30;100314.00;;;;5087865;28;20182;-67
2022/12/09 13:10:07;;;;;;;0.70;0.70;;;2.70;99.90;2.20;100299.00;;;;5066843;28;20224;-68
2022/12/09 13:13:17;;;;;;;1.40;1.30;;;2.60;99.90;1.30;100291.00;;;;5076475;28;20205;-67
2022/12/09 13:16:15;;;;;;;0.40;0.40;;;2.30;99.90;2.40;100230.00;;;;5073603;28;20185;-67
2022/12/09 13:19:30;;;;;;;1.90;1.80;;;2.50;99.90;1.90;100295.00;;;;5067870;28;20207;-67
2022/12/09 13:22:35;;;;;;;1.93;1.83;;;2.60;99.90;1.70;100292.00;;;;5046762;28;20559;-67
2022/12/09 13:25:27;;;;;;;0.40;0.40;;;2.30;99.90;2.70;100297.00;;;;5072183;28;20188;-67
2022/12/09 13:28:54;;;;;;;0.40;0.40;;;2.70;99.90;2.70;100302.00;;;;5074485;28;20590;-67
2022/12/09 13:31:47;;;;;;;0.50;0.50;;;3.00;99.90;2.80;100302.00;;;;5080176;28;20198;-66
2022/12/09 13:34:54;;;;;;;0.50;0.50;;;3.20;99.90;2.80;100299.00;;;;5073161;28;20264;-66
2022/12/09 13:38:08;;;;;;;0.57;0.57;;;3.20;99.90;3.10;100294.00;;;;5074609;28;20197;-66
2022/12/09 13:41:12;;;;;;;0.60;0.60;;;3.30;99.90;3.10;100298.00;;;;5058042;28;20196;-66
2022/12/09 13:44:16;;;;;;;0.63;0.63;;;3.30;99.90;2.90;100304.00;;;;5078466;28;20678;-66
2022/12/09 13:46:42;;;;;;;0.50;0.50;;;3.30;99.90;3.20;100208.00;;;;5080842;28;20325;-66
2022/12/09 13:49:10;;;;;;;0.60;0.60;;;3.30;99.90;3.70;100221.00;;;;5081040;28;20271;-66
2022/12/09 13:51:50;;;;;;;0.40;0.40;;;3.60;99.90;1.90;100238.00;;;;5079566;28;20267;-66
2022/12/09 13:54:23;;;;;;;0.40;0.40;;;3.00;99.90;2.00;100307.00;;;;5064737;28;20189;-65
2022/12/09 13:57:42;;;;;;;0.30;0.30;;;2.80;99.90;1.60;100298.00;;;;5075221;28;20188;-65
2022/12/09 14:05:12;;;;;;;0.50;0.50;;;2.50;99.90;2.10;100302.00;;;;5024372;28;20243;-66
2022/12/09 14:07:58;;;;;;;0.30;0.30;;;2.70;99.90;2.20;100299.00;;;;5047035;28;20526;-65
2022/12/09 14:10:57;;;;;;;0.40;0.40;;;2.60;99.90;2.70;100302.00;;;;5049069;28;20671;-65
2022/12/09 14:13:48;;;;;;;0.40;0.40;;;2.80;99.90;2.90;100303.00;;;;5031352;28;20887;-66
2022/12/09 14:16:26;;;;;;;1.00;1.00;;;3.00;99.90;3.30;100306.00;;;;5039790;28;20219;-66
2022/12/09 14:19:33;;;;;;;0.40;0.40;;;3.20;99.90;3.10;100311.00;;;;5049068;28;20202;-66
2022/12/09 14:22:17;;;;;;;0.50;0.50;;;3.30;99.90;2.50;100309.00;;;;5048163;28;20182;-65
2022/12/09 14:25:26;;;;;;;0.50;0.50;;;3.00;99.90;2.30;100280.00;;;;5049422;28;20635;-66
2022/12/09 14:28:15;;;;;;;0.40;0.40;;;2.90;99.90;2.00;100315.00;;;;5049104;28;20236;-66
2022/12/09 14:31:03;;;;;;;0.87;0.87;;;2.60;99.90;2.00;100334.00;;;;5078656;28;20239;-66
2022/12/09 14:34:38;;;;;;;1.07;1.03;;;2.50;99.90;1.90;100311.00;;;;5078811;28;20246;-66
2022/12/09 14:37:56;;;;;;;0.40;0.40;;;2.50;99.90;2.00;100334.00;;;;5077047;28;20205;-65
2022/12/09 14:40:55;;;;;;;1.13;1.13;;;2.40;99.90;2.00;100233.00;;;;5010480;28;20210;-65
2022/12/09 14:44:09;;;;;;;0.50;0.50;;;2.30;99.90;2.00;100314.00;;;;5079181;28;20289;-66
2022/12/09 14:47:13;;;;;;;0.70;0.70;;;2.40;99.90;2.00;100324.00;;;;5096440;28;20279;-65
2022/12/09 14:50:15;;;;;;;0.93;0.93;;;2.30;99.90;1.80;100322.00;;;;5097055;28;20211;-65
2022/12/09 14:53:38;;;;;;;0.60;0.60;;;2.30;99.90;1.50;100337.00;;;;5078470;28;20216;-65
2022/12/09 14:56:56;;;;;;;0.40;0.40;;;2.10;99.90;1.20;100338.00;;;;5009754;28;20580;-66
2022/12/09 14:59:50;;;;;;;0.40;0.40;;;2.00;99.90;1.70;100337.00;;;;5001163;28;20209;-65
2022/12/09 15:02:33;;;;;;;0.63;0.63;;;2.00;99.90;1.30;100343.00;;;;5095729;28;20285;-65
2022/12/09 15:05:22;;;;;;;5.23;3.70;;;2.00;99.90;1.40;100363.00;;;;5081745;28;20173;-65
2022/12/09 15:08:02;;;;;;;0.40;0.40;;;1.90;99.90;1.20;100362.00;;;;5080789;28;20189;-65
2022/12/09 15:10:45;;;;;;;0.40;0.40;;;1.80;99.90;1.60;100316.00;;;;5081303;28;20188;-66
2022/12/09 15:13:27;;;;;;;0.40;0.40;;;1.90;99.90;1.70;100273.00;;;;5079435;28;20290;-65
2022/12/09 15:16:30;;;;;;;0.50;0.50;;;2.00;99.90;1.90;100360.00;;;;5081396;28;20182;-66
2022/12/09 15:19:40;;;;;;;0.50;0.50;;;2.10;99.90;1.70;100346.00;;;;5092466;28;20208;-66
2022/12/09 15:22:34;;;;;;;0.77;0.77;;;2.00;99.90;1.90;100267.00;;;;5081580;28;20705;-65
2022/12/09 15:25:28;;;;;;;0.80;0.80;;;2.10;99.90;1.60;100261.00;;;;5087016;28;20216;-66
2022/12/09 15:28:45;;;;;;;0.50;0.50;;;2.10;99.90;1.40;100337.00;;;;5079622;28;20208;-67
2022/12/09 15:31:48;;;;;;;0.50;0.50;;;2.00;99.90;2.10;100335.00;;;;5078185;28;20185;-66
2022/12/09 15:34:47;;;;;;;0.50;0.50;;;2.00;99.90;2.50;100347.00;;;;5085240;28;20548;-66
2022/12/09 15:38:11;;;;;;;0.60;0.60;;;2.40;99.90;2.50;100244.00;;;;5081585;28;20217;-66
2022/12/09 15:44:16;;;;;;;0.50;0.50;;;2.50;99.90;1.50;100337.00;;;;5083892;28;20220;-64
2022/12/09 15:47:01;;;;;;;0.60;0.60;;;2.00;99.90;1.30;100254.00;;;;5013773;28;20282;-65
2022/12/09 15:49:37;;;;;;;0.50;0.50;;;1.90;99.90;1.60;100317.00;;;;4996611;28;20207;-65
2022/12/09 15:52:08;;;;;;;0.60;0.60;;;1.80;99.90;1.40;100338.00;;;;4997034;28;20297;-65
2022/12/09 15:54:40;;;;;;;1.77;1.67;;;1.80;99.90;1.30;100245.00;;;;4996932;28;20573;-65
2022/12/09 15:57:34;;;;;;;6.10;1.83;;;1.80;99.90;0.80;100348.00;;;;5011614;28;20187;-64
2022/12/09 16:00:08;;;;;;;0.40;0.40;;;1.70;99.90;1.00;100346.00;;;;5011967;28;20285;-65
2022/12/09 16:02:54;;;;;;;2.13;2.03;;;1.50;99.90;0.60;100349.00;;;;5082356;28;20195;-64
2022/12/09 16:05:50;;;;;;;6.27;5.97;;;1.40;99.90;0.90;100335.00;;;;5075179;28;20185;-64
2022/12/09 16:08:34;;;;;;;2.10;1.93;;;1.40;99.90;1.40;100344.00;;;;5081151;28;20641;-64
2022/12/09 16:11:44;;;;;;;0.50;0.50;;;1.60;99.90;1.30;100341.00;;;;5083809;28;20181;-64
2022/12/09 16:14:16;;;;;;;3.63;3.50;;;1.70;99.90;1.20;100345.00;;;;5083682;28;20648;-65
2022/12/09 16:16:51;;;;;;;2.80;2.70;;;1.60;99.90;1.20;100348.00;;;;5099840;28;20185;-64
2022/12/09 16:19:37;;;;;;;1.87;1.77;;;1.60;99.90;1.00;100349.00;;;;5083960;28;20184;-64
2022/12/09 16:22:44;;;;;;;3.38;3.08;;;1.50;99.90;1.10;100250.00;;;;5081738;28;20489;-65
2022/12/09 16:25:37;;;;;;;1.37;1.37;;;1.60;99.90;0.60;100342.00;;;;5065646;28;20181;-65
2022/12/09 16:28:25;;;;;;;0.50;0.50;;;1.40;99.90;1.10;100350.00;;;;5083458;28;20193;-63
2022/12/09 16:31:00;;;;;;;1.97;1.90;;;1.40;99.90;0.90;100344.00;;;;5083613;28;20231;-63
2022/12/09 16:33:38;;;;;;;2.03;1.33;;;1.50;99.90;0.60;100354.00;;;;5080711;28;20216;-64
2022/12/09 16:36:24;;;;;;;3.13;1.60;;;1.40;99.90;0.20;100362.00;;;;5099588;28;20188;-64
2022/12/09 16:39:34;;;;;;;0.40;0.40;;;1.10;99.90;0.30;100339.00;;;;5079944;28;20948;-64
2022/12/09 16:42:01;;;;;;;0.40;0.40;;;1.00;99.90;0.20;100263.00;;;;5082661;28;20234;-65
2022/12/09 16:44:34;;;;;;;15.67;5.17;;;1.00;99.90;0.80;100352.00;;;;5083311;28;20192;-64
2022/12/09 16:47:31;;;;;;;5.17;4.20;;;1.20;99.90;0.60;100367.00;;;;5078997;28;20204;-63
2022/12/09 16:50:38;;;;;;;1.97;1.20;;;1.20;99.90;0.40;100361.00;;;;5087986;28;20173;-64
2022/12/09 16:53:50;;;;;;;0.70;0.70;;;1.10;99.90;0.80;100375.00;;;;5092394;28;20211;-63
2022/12/09 16:56:37;;;;;;;0.63;0.63;;;1.10;99.90;0.70;100382.00;;;;5088171;28;20661;-64
2022/12/09 16:59:38;;;;;;;0.50;0.50;;;1.20;99.90;0.40;100368.00;;;;5064827;28;20215;-64
2022/12/09 17:02:32;;;;;;;0.40;0.40;;;1.10;99.90;0.30;100356.00;;;;5080907;28;20283;-65
2022/12/09 17:05:25;;;;;;;0.40;0.40;;;1.00;99.90;0.30;100388.00;;;;5080928;28;20193;-64
2022/12/09 17:08:16;;;;;;;0.50;0.50;;;0.90;99.90;1.10;100375.00;;;;5084014;28;20203;-64
2022/12/09 17:11:13;;;;;;;3.63;3.43;;;1.20;99.90;0.80;100373.00;;;;5077883;28;20268;-64
2022/12/09 17:13:44;;;;;;;3.33;2.93;;;1.30;99.90;0.70;100388.00;;;;5081432;28;20687;-64
2022/12/09 17:16:22;;;;;;;4.40;3.47;;;1.30;99.90;0.60;100387.00;;;;5076532;28;20220;-64
2022/12/09 17:18:52;;;;;;;0.40;0.40;;;1.20;99.90;0.60;100386.00;;;;5082322;28;20234;-64
2022/12/09 17:21:21;;;;;;;0.60;0.60;;;1.20;99.90;0.30;100391.00;;;;5082076;28;20216;-63
2022/12/09 17:24:25;;;;;;;0.50;0.50;;;1.10;99.90;0.30;100398.00;;;;5081630;28;20197;-64
2022/12/09 17:27:33;;;;;;;0.40;0.40;;;0.90;99.90;0.10;100383.00;;;;5080779;28;20200;-64
2022/12/09 17:30:42;;;;;;;0.40;0.40;;;0.90;99.90;1.00;100405.00;;;;5082451;28;20185;-64
2022/12/09 17:33:50;;;;;;;0.60;0.60;;;1.10;99.90;0.90;100391.00;;;;5078830;28;20223;-64
2022/12/09 17:36:34;;;;;;;5.17;2.97;;;1.30;99.90;1.40;100306.00;;;;5080010;28;20196;-64
2022/12/09 17:39:23;;;;;;;0.70;0.70;;;1.50;99.90;0.40;100379.00;;;;5077607;28;20190;-64
2022/12/09 17:41:56;;;;;;;5.33;5.13;;;1.20;99.90;0.50;100396.00;;;;5065567;28;20299;-64
2022/12/09 17:44:57;;;;;;;3.53;2.20;;;1.00;99.90;0.70;100395.00;;;;5066450;28;20571;-64
2022/12/09 17:48:18;;;;;;;0.77;0.77;;;1.10;99.90;1.20;100402.00;;;;5063835;28;20188;-65
2022/12/09 17:50:52;;;;;;;1.07;1.07;;;1.30;99.90;0.80;100384.00;;;;5076875;28;20188;-64
2022/12/09 17:53:55;;;;;;;1.53;1.53;;;1.30;99.90;0.80;100405.00;;;;5056969;28;20236;-65
2022/12/09 17:56:30;;;;;;;0.60;0.60;;;1.20;99.90;0.80;100401.00;;;;5069170;28;20178;-65
2022/12/09 17:59:32;;;;;;;0.70;0.70;;;1.10;99.90;0.80;100416.00;;;;5069169;28;20181;-66
2022/12/09 18:02:08;;;;;;;2.70;2.53;;;1.20;99.90;0.30;100387.00;;;;5072766;28;20188;-65
2022/12/09 18:04:34;;;;;;;0.90;0.90;;;1.10;99.90;0.20;100415.00;;;;5071540;28;20215;-67
2022/12/09 18:07:00;;;;;;;0.50;0.50;;;0.90;99.90;0.20;100417.00;;;;5071683;28;20270;-67
2022/12/09 18:09:26;;;;;;;2.13;1.93;;;0.80;99.90;0.20;100405.00;;;;5071786;28;20181;-67
2022/12/09 18:12:20;;;;;;;0.60;0.60;;;0.80;99.90;0.60;100401.00;;;;5070227;28;20307;-67
2022/12/09 18:14:46;;;;;;;0.60;0.60;;;0.80;99.90;1.00;100387.00;;;;5047918;28;20675;-66
2022/12/09 18:17:12;;;;;;;0.60;0.60;;;1.00;99.90;1.00;100407.00;;;;5072558;28;20216;-66
2022/12/09 18:19:52;;;;;;;1.83;1.80;;;1.20;99.90;1.30;100407.00;;;;5067818;28;20194;-66
2022/12/09 18:22:25;;;;;;;0.60;0.60;;;1.30;99.90;1.10;100407.00;;;;5062864;28;20189;-66
2022/12/09 18:24:52;;;;;;;0.70;0.70;;;1.30;99.90;0.80;100404.00;;;;5059788;28;20193;-66
2022/12/09 18:27:17;;;;;;;0.80;0.80;;;1.10;99.90;0.90;100392.00;;;;5088751;28;20177;-66
2022/12/09 18:30:25;;;;;;;4.40;3.97;;;1.10;99.90;1.00;100411.00;;;;5073134;28;20656;-66
2022/12/09 18:32:52;;;;;;;0.80;0.80;;;1.10;99.90;1.00;100417.00;;;;5071025;28;20258;-66
2022/12/09 18:35:17;;;;;;;0.80;0.80;;;1.20;99.90;1.00;100418.00;;;;5071600;28;20188;-66
2022/12/09 18:38:18;;;;;;;0.83;0.83;;;1.20;99.90;1.00;100428.00;;;;5072673;28;20185;-66
2022/12/09 18:41:02;;;;;;;2.87;2.77;;;1.20;99.90;1.00;100419.00;;;;5056304;28;20185;-66
2022/12/09 18:43:49;;;;;;;0.80;0.80;;;1.20;99.90;0.90;100420.00;;;;5070473;28;20181;-66
2022/12/09 18:46:45;;;;;;;1.27;1.27;;;1.10;99.90;0.40;100414.00;;;;5070481;28;20177;-63
2022/12/09 18:49:19;;;;;;;0.70;0.70;;;0.90;99.90;0.40;100430.00;;;;5061029;28;20277;-65
2022/12/09 18:52:28;;;;;;;0.90;0.90;;;0.80;99.90;0.40;100429.00;;;;5079165;28;20234;-65
2022/12/09 18:54:54;;;;;;;0.80;0.80;;;0.80;99.90;0.60;100430.00;;;;5082353;28;20201;-65
2022/12/09 18:57:27;;;;;;;0.70;0.70;;;0.80;99.90;0.70;100431.00;;;;5084553;28;20657;-65
2022/12/09 18:59:53;;;;;;;0.80;0.80;;;0.90;99.90;0.80;100341.00;;;;5083712;28;20643;-65
2022/12/09 19:02:37;;;;;;;3.50;1.90;;;1.00;99.90;0.80;100336.00;;;;5086815;28;20190;-66
2022/12/09 19:05:46;;;;;;;0.70;0.70;;;1.00;99.90;0.50;100402.00;;;;5082526;28;20250;-65
2022/12/09 19:09:02;;;;;;;0.70;0.70;;;0.90;99.90;0.50;100443.00;;;;5079111;28;20567;-65
2022/12/09 19:11:42;;;;;;;0.70;0.70;;;0.90;99.90;0.30;100440.00;;;;5083177;28;20641;-65
2022/12/09 19:14:37;;;;;;;0.63;0.63;;;0.80;99.90;0.20;100449.00;;;;5085268;28;20192;-65
2022/12/09 19:17:41;;;;;;;1.73;1.73;;;0.70;99.90;-0.10;100437.00;;;;5082001;28;20531;-65
2022/12/09 19:20:53;;;;;;;0.60;0.60;;;0.60;99.90;0.00;100436.00;;;;5083302;28;20205;-65
2022/12/09 19:23:56;;;;;;;0.70;0.70;;;0.60;99.90;0.60;100433.00;;;;5080324;28;20265;-65
2022/12/09 19:26:41;;;;;;;1.80;1.80;;;0.70;99.90;0.60;100341.00;;;;5076435;28;20207;-65
2022/12/09 19:29:36;;;;;;;0.80;0.80;;;0.90;99.90;0.60;100434.00;;;;5082942;28;20181;-66
2022/12/09 19:32:41;;;;;;;0.70;0.70;;;0.90;99.90;0.30;100461.00;;;;5068050;28;20216;-64
2022/12/09 19:35:39;;;;;;;4.07;3.80;;;0.70;99.90;0.70;100450.00;;;;5083484;28;20197;-65
2022/12/09 19:38:16;;;;;;;1.00;1.00;;;0.80;99.90;0.20;100431.00;;;;5084526;28;20196;-64
2022/12/09 19:41:13;;;;;;;0.70;0.70;;;0.70;99.90;0.00;100446.00;;;;5084453;28;20264;-65
2022/12/09 19:43:40;;;;;;;0.70;0.70;;;0.50;99.90;0.20;100452.00;;;;5083982;28;20674;-64
2022/12/09 19:46:29;;;;;;;0.83;0.83;;;0.50;99.90;0.10;100449.00;;;;5083270;28;20187;-64
2022/12/09 19:49:55;;;;;;;1.07;1.07;;;0.50;99.90;0.00;100461.00;;;;5097687;28;20531;-64
2022/12/09 19:53:02;;;;;;;0.70;0.70;;;0.50;99.90;-0.10;100456.00;;;;5067205;28;20209;-64
2022/12/09 19:56:00;;;;;;;2.93;2.70;;;0.40;99.90;0.10;100469.00;;;;5084053;28;20176;-64
2022/12/09 19:58:44;;;;;;;1.00;1.00;;;0.40;99.90;0.20;100461.00;;;;5082729;28;20640;-66
2022/12/09 20:01:18;;;;;;;0.70;0.70;;;0.50;99.90;0.10;100463.00;;;;5084410;28;20644;-66
2022/12/09 20:04:11;;;;;;;1.67;1.67;;;0.50;99.90;-0.20;100445.00;;;;5085002;28;20543;-66
2022/12/09 20:07:00;;;;;;;0.70;0.70;;;0.40;99.90;-0.10;100474.00;;;;5083315;28;20212;-66
2022/12/09 20:10:02;;;;;;;0.70;0.70;;;0.40;99.90;0.10;100470.00;;;;5064596;28;20213;-66
2022/12/09 20:12:43;;;;;;;0.67;0.67;;;0.50;99.90;0.20;100391.00;;;;5080639;28;20239;-67
2022/12/09 20:15:51;;;;;;;1.70;1.70;;;0.50;99.90;0.10;100476.00;;;;5083796;28;20550;-67
2022/12/09 20:18:45;;;;;;;3.00;2.53;;;0.50;99.90;-0.30;100479.00;;;;5064773;28;20658;-66
2022/12/09 20:21:43;;;;;;;3.23;3.00;;;0.40;99.90;-0.20;100366.00;;;;5066816;28;20193;-70
2022/12/09 20:24:44;;;;;;;0.70;0.70;;;0.30;99.90;-0.30;100466.00;;;;5071293;28;20214;-65
2022/12/09 20:27:34;;;;;;;9.50;9.10;;;0.30;99.90;-0.30;100475.00;;;;5073629;28;20184;-65
2022/12/09 20:30:26;;;;;;;1.33;1.33;;;0.30;99.90;-0.20;100449.00;;;;5063296;28;20185;-66
2022/12/09 20:33:31;;;;;;;1.87;1.87;;;0.30;99.90;-0.30;100478.00;;;;5073297;28;20218;-66
2022/12/09 20:36:20;;;;;;;1.77;1.73;;;0.20;99.90;-0.40;100491.00;;;;5077147;28;20567;-66
2022/12/09 20:39:13;;;;;;;1.23;1.23;;;0.20;99.90;-0.50;100483.00;;;;5073483;28;20200;-66
2022/12/09 20:42:06;;;;;;;1.30;1.30;;;0.20;99.90;-0.50;100482.00;;;;5077832;28;20548;-66
2022/12/09 20:44:57;;;;;;;3.73;3.63;;;0.20;99.90;-0.50;100389.00;;;;5076619;28;20593;-66
2022/12/09 20:47:33;;;;;;;1.53;1.53;;;0.20;99.90;-0.40;100506.00;;;;5092259;28;20185;-66
2022/12/09 20:50:06;;;;;;;2.67;2.57;;;0.20;99.90;-0.20;100484.00;;;;5060879;28;20169;-66
2022/12/09 20:52:49;;;;;;;1.07;1.07;;;0.20;99.90;-0.10;100499.00;;;;5073602;28;20244;-66
2022/12/09 20:55:40;;;;;;;1.00;1.00;;;0.20;99.90;0.20;100469.00;;;;5074066;28;20640;-66
2022/12/09 20:58:17;;;;;;;1.43;1.30;;;0.30;99.90;-0.10;100492.00;;;;5065148;28;20182;-66
2022/12/09 21:01:23;;;;;;;1.77;1.73;;;0.30;99.90;-0.20;100477.00;;;;5064575;28;20235;-66
2022/12/09 21:03:55;;;;;;;1.13;1.13;;;0.30;99.90;-0.30;100409.00;;;;5070228;28;20643;-66
2022/12/09 21:06:32;;;;;;;0.70;0.70;;;0.30;99.90;0.00;100509.00;;;;5056963;28;20181;-66
2022/12/09 21:09:20;;;;;;;1.73;1.63;;;0.40;99.90;-0.10;100503.00;;;;5073392;28;20608;-66